Time;durP1;ratioP1;P1;durP2;ratioP2;P2;SDS_P1;SDS_P2;PMS_P1;PMS_P2;Temp;Humidity;BMP_temperature;BMP_pressure;BME280_temperature;BME280_humidity;BME280_pressure;Samples;Min_cycle;Max_cycle;Signal;HPM_P1;HPM_P2
2022/11/13 00:00:01;;;;;;;17.77;13.73;;;;;;;5.50;100.00;96497.09;4953878;28;20291;-80
2022/11/13 00:02:26;;;;;;;16.33;12.70;;;;;;;5.52;100.00;96497.81;4968490;28;20239;-80
2022/11/13 00:04:51;;;;;;;14.50;11.93;;;;;;;5.52;100.00;96490.09;4976764;28;20193;-80
2022/11/13 00:07:16;;;;;;;15.63;13.00;;;;;;;5.49;100.00;96491.13;4974743;28;20191;-82
2022/11/13 00:09:42;;;;;;;17.93;12.93;;;;;;;5.53;100.00;96499.47;4965821;28;20251;-81
2022/11/13 00:12:07;;;;;;;15.20;12.40;;;;;;;5.50;100.00;96491.94;4971092;28;20696;-81
2022/11/13 00:14:32;;;;;;;14.13;11.90;;;;;;;5.53;100.00;96491.75;4958636;28;20223;-80
2022/11/13 00:16:58;;;;;;;16.70;12.33;;;;;;;5.54;100.00;96488.25;4960438;28;20700;-80
2022/11/13 00:19:23;;;;;;;15.03;11.83;;;;;;;5.53;100.00;96490.00;4970065;28;20208;-81
2022/11/13 00:21:48;;;;;;;16.37;13.23;;;;;;;5.56;100.00;96491.53;4970135;28;20287;-79
2022/11/13 00:24:14;;;;;;;13.17;11.47;;;;;;;5.53;100.00;96484.84;4971439;28;20189;-80
2022/11/13 00:26:39;;;;;;;18.40;12.13;;;;;;;5.58;100.00;96479.44;4971930;28;20248;-80
2022/11/13 00:29:04;;;;;;;15.53;12.10;;;;;;;5.61;100.00;96480.06;4970138;28;20192;-80
2022/11/13 00:31:30;;;;;;;15.33;12.37;;;;;;;5.59;100.00;96470.78;4977515;28;20217;-81
2022/11/13 00:33:57;;;;;;;16.33;12.97;;;;;;;5.59;100.00;96475.91;4970799;28;20192;-80
2022/11/13 00:36:24;;;;;;;15.97;13.33;;;;;;;5.56;100.00;96468.34;4961066;28;20653;-80
2022/11/13 00:38:49;;;;;;;18.23;13.70;;;;;;;5.59;100.00;96465.63;4976259;28;20623;-81
2022/11/13 00:41:14;;;;;;;16.13;12.30;;;;;;;5.59;100.00;96460.47;4978159;28;20222;-79
2022/11/13 00:43:40;;;;;;;17.27;13.70;;;;;;;5.62;100.00;96455.94;4983442;28;20197;-80
2022/11/13 00:46:06;;;;;;;16.37;13.47;;;;;;;5.66;100.00;96454.00;4986823;28;20192;-80
2022/11/13 00:48:31;;;;;;;15.10;12.90;;;;;;;5.67;100.00;96450.50;4958648;28;20200;-79
2022/11/13 00:50:57;;;;;;;16.67;13.80;;;;;;;5.67;100.00;96459.06;4978692;28;20219;-80
2022/11/13 00:53:22;;;;;;;17.50;13.53;;;;;;;5.72;100.00;96445.06;4968474;28;20197;-80
2022/11/13 00:55:48;;;;;;;19.90;13.57;;;;;;;5.73;100.00;96447.53;4984156;28;20208;-80
2022/11/13 00:58:13;;;;;;;17.80;13.17;;;;;;;5.74;100.00;96445.78;4975700;28;20247;-80
2022/11/13 01:00:41;;;;;;;16.73;13.53;;;;;;;5.75;100.00;96444.88;4986719;28;20206;-81
2022/11/13 01:03:06;;;;;;;16.80;14.07;;;;;;;5.75;100.00;96437.16;4965695;28;20657;-80
2022/11/13 01:05:35;;;;;;;15.53;13.20;;;;;;;5.77;100.00;96436.13;4979232;28;20195;-80
2022/11/13 01:08:00;;;;;;;18.40;12.90;;;;;;;5.76;100.00;96437.03;4966809;28;20572;-81
2022/11/13 01:10:25;;;;;;;16.40;13.63;;;;;;;5.75;100.00;96432.81;4952014;28;20189;-81
2022/11/13 01:12:51;;;;;;;14.43;12.97;;;;;;;5.74;100.00;96438.88;4975429;28;20221;-80
2022/11/13 01:15:16;;;;;;;17.27;13.03;;;;;;;5.81;100.00;96435.00;4984910;28;20224;-81
2022/11/13 01:17:41;;;;;;;15.53;12.00;;;;;;;5.82;100.00;96428.09;4990397;28;20189;-81
2022/11/13 01:20:07;;;;;;;15.17;12.40;;;;;;;5.79;100.00;96428.28;4972930;28;20678;-81
2022/11/13 01:22:32;;;;;;;16.20;12.87;;;;;;;5.78;100.00;96430.03;4978751;28;20259;-81
2022/11/13 01:24:57;;;;;;;15.00;12.03;;;;;;;5.73;100.00;96419.19;4982176;28;20192;-81
2022/11/13 01:27:23;;;;;;;13.63;11.13;;;;;;;5.74;100.00;96423.41;4973518;28;20192;-81
2022/11/13 01:29:48;;;;;;;13.80;11.50;;;;;;;5.72;100.00;96414.94;4972293;28;20216;-81
2022/11/13 01:32:13;;;;;;;14.13;10.67;;;;;;;5.70;100.00;96406.50;4981681;28;20659;-81
2022/11/13 01:34:39;;;;;;;15.13;11.10;;;;;;;5.68;100.00;96409.19;4959684;28;20211;-81
2022/11/13 01:37:04;;;;;;;12.73;10.87;;;;;;;5.60;100.00;96403.69;4970440;28;20216;-81
2022/11/13 01:39:29;;;;;;;11.17;9.97;;;;;;;5.63;100.00;96400.06;4973643;28;20192;-80
2022/11/13 01:41:55;;;;;;;15.10;10.60;;;;;;;5.61;100.00;96401.94;4970170;28;20216;-81
2022/11/13 01:44:20;;;;;;;12.20;10.20;;;;;;;5.65;100.00;96395.63;4972161;28;20189;-81
2022/11/13 01:46:46;;;;;;;11.47;9.83;;;;;;;5.61;100.00;96399.34;4963428;28;20219;-81
2022/11/13 01:49:27;;;;;;;10.93;9.73;;;;;;;5.59;100.00;96389.13;4972488;28;20196;-80
2022/11/13 01:52:08;;;;;;;11.07;9.70;;;;;;;5.57;100.00;96392.75;4969821;28;20208;-80
2022/11/13 01:54:36;;;;;;;11.70;9.90;;;;;;;5.47;100.00;96389.88;4969455;28;20219;-81
2022/11/13 01:57:02;;;;;;;11.97;9.57;;;;;;;5.46;100.00;96382.25;4961548;28;20200;-81
2022/11/13 01:59:32;;;;;;;12.03;9.73;;;;;;;5.39;100.00;96376.69;4963940;28;20199;-81
2022/11/13 02:01:57;;;;;;;13.13;8.70;;;;;;;5.33;100.00;96377.88;4969472;28;20302;-81
2022/11/13 02:04:22;;;;;;;11.87;9.20;;;;;;;5.33;100.00;96370.16;4970438;28;20808;-81
2022/11/13 02:06:51;;;;;;;11.10;8.27;;;;;;;5.34;100.00;96374.38;4969961;28;20192;-80
2022/11/13 02:09:20;;;;;;;9.67;8.60;;;;;;;5.34;100.00;96368.41;4973767;28;20191;-82
2022/11/13 02:11:45;;;;;;;8.33;7.00;;;;;;;5.37;99.95;96368.22;4970313;28;20236;-80
2022/11/13 02:14:12;;;;;;;9.37;8.03;;;;;;;5.34;99.55;96366.66;4973767;28;20599;-80
2022/11/13 02:16:38;;;;;;;7.50;6.70;;;;;;;5.33;99.38;96362.44;4969189;28;20203;-81
2022/11/13 02:19:06;;;;;;;10.23;7.00;;;;;;;5.32;98.86;96365.94;4971742;28;20653;-81
2022/11/13 02:21:39;;;;;;;6.77;6.17;;;;;;;5.28;99.05;96366.22;4968912;28;20248;-81
2022/11/13 02:24:13;;;;;;;8.10;6.73;;;;;;;5.27;98.17;96367.97;4964791;28;20208;-81
2022/11/13 02:26:39;;;;;;;7.10;6.40;;;;;;;5.23;97.80;96356.22;4960026;28;20279;-80
2022/11/13 02:29:04;;;;;;;8.20;6.10;;;;;;;5.20;97.53;96361.53;4963944;28;20234;-81
2022/11/13 02:31:29;;;;;;;6.97;6.17;;;;;;;5.13;97.71;96355.13;4981178;28;20208;-81
2022/11/13 02:33:55;;;;;;;7.53;6.60;;;;;;;5.05;98.14;96347.88;4976217;28;20207;-81
2022/11/13 02:36:21;;;;;;;7.33;6.23;;;;;;;5.01;98.10;96353.28;4977700;28;20684;-81
2022/11/13 02:38:47;;;;;;;7.30;6.60;;;;;;;4.92;98.15;96349.53;4955324;28;20241;-80
2022/11/13 02:41:12;;;;;;;7.77;6.97;;;;;;;4.90;98.41;96353.13;4978517;28;20608;-81
2022/11/13 02:43:37;;;;;;;7.53;6.73;;;;;;;4.85;98.37;96355.97;4970239;28;20659;-81
2022/11/13 02:46:03;;;;;;;6.70;6.00;;;;;;;4.78;98.46;96352.97;4985411;28;20188;-81
2022/11/13 02:48:28;;;;;;;6.83;6.10;;;;;;;4.74;98.23;96350.66;4970375;28;20187;-81
2022/11/13 02:50:54;;;;;;;7.50;6.63;;;;;;;4.70;98.45;96352.59;4975032;28;20228;-81
2022/11/13 02:53:19;;;;;;;7.47;6.40;;;;;;;4.65;98.37;96352.03;4969794;28;20185;-81
2022/11/13 02:55:44;;;;;;;6.43;5.63;;;;;;;4.62;98.58;96335.94;4969618;28;20299;-81
2022/11/13 02:58:10;;;;;;;7.00;6.23;;;;;;;4.60;98.70;96333.47;4959840;28;20184;-81
2022/11/13 03:00:35;;;;;;;5.90;5.30;;;;;;;4.53;98.71;96338.16;4969987;28;20649;-81
2022/11/13 03:03:00;;;;;;;6.73;5.77;;;;;;;4.49;98.51;96333.28;4971129;28;20193;-81
2022/11/13 03:05:25;;;;;;;6.80;6.10;;;;;;;4.43;99.09;96333.66;4969236;28;20203;-81
2022/11/13 03:07:51;;;;;;;7.00;6.37;;;;;;;4.39;98.67;96337.31;4979548;28;20284;-82
2022/11/13 03:10:16;;;;;;;8.00;6.53;;;;;;;4.34;98.44;96329.06;4985011;28;20676;-81
2022/11/13 03:12:42;;;;;;;6.30;5.67;;;;;;;4.26;98.83;96332.91;4970020;28;20208;-81
2022/11/13 03:15:07;;;;;;;6.80;6.10;;;;;;;4.22;98.82;96330.59;4965002;28;20220;-81
2022/11/13 03:17:33;;;;;;;7.83;6.00;;;;;;;4.18;98.57;96327.38;4970481;28;20192;-81
2022/11/13 03:19:59;;;;;;;7.53;6.50;;;;;;;4.12;98.92;96330.28;4985311;28;20200;-81
2022/11/13 03:22:24;;;;;;;7.47;5.60;;;;;;;4.09;98.83;96329.66;4980249;28;20227;-81
2022/11/13 03:24:50;;;;;;;7.13;6.07;;;;;;;4.04;99.03;96318.81;4977801;28;20212;-81
2022/11/13 03:27:15;;;;;;;6.63;5.60;;;;;;;4.00;98.99;96328.44;4970667;28;20196;-81
2022/11/13 03:29:40;;;;;;;6.33;5.70;;;;;;;3.97;98.81;96320.88;4967871;28;20634;-81
2022/11/13 03:32:05;;;;;;;5.83;5.23;;;;;;;3.93;99.11;96320.25;4969468;28;20224;-80
2022/11/13 03:34:31;;;;;;;5.97;5.37;;;;;;;3.90;98.93;96314.47;4972978;28;20215;-80
2022/11/13 03:36:56;;;;;;;7.03;6.20;;;;;;;3.85;99.66;96316.47;4969910;28;20203;-82
2022/11/13 03:39:21;;;;;;;6.67;5.93;;;;;;;3.85;99.81;96319.03;4974282;28;20696;-84
2022/11/13 03:41:47;;;;;;;7.70;6.20;;;;;;;3.83;99.48;96323.44;4971652;28;20223;-82
2022/11/13 03:44:12;;;;;;;6.10;5.50;;;;;;;3.82;99.30;96321.78;4975592;28;20553;-82
2022/11/13 03:46:37;;;;;;;6.37;5.70;;;;;;;3.77;99.38;96323.78;4973946;28;20242;-81
2022/11/13 03:49:03;;;;;;;6.43;5.23;;;;;;;3.73;99.24;96319.75;4982486;28;20196;-82
2022/11/13 03:51:28;;;;;;;6.73;5.80;;;;;;;3.74;99.67;96313.69;4969026;28;20581;-81
2022/11/13 03:53:53;;;;;;;7.03;5.07;;;;;;;3.72;99.54;96308.66;4979983;28;20611;-82
2022/11/13 03:56:18;;;;;;;9.07;6.63;;;;;;;3.72;99.42;96311.22;4985550;28;20235;-81
2022/11/13 03:58:44;;;;;;;6.70;5.50;;;;;;;3.69;99.59;96306.22;5006343;28;20181;-82
2022/11/13 04:01:09;;;;;;;7.00;5.83;;;;;;;3.66;99.02;96311.56;4990616;28;20264;-81
2022/11/13 04:03:34;;;;;;;6.50;5.80;;;;;;;3.65;99.06;96308.16;4979251;28;20192;-81
2022/11/13 04:06:00;;;;;;;6.97;5.60;;;;;;;3.67;98.99;96300.38;4998229;28;20207;-82
2022/11/13 04:08:25;;;;;;;7.40;5.80;;;;;;;3.69;99.01;96303.66;4983242;28;20195;-81
2022/11/13 04:10:50;;;;;;;6.33;5.30;;;;;;;3.69;98.94;96301.09;4965642;28;20223;-81
2022/11/13 04:13:16;;;;;;;9.47;6.07;;;;;;;3.64;98.37;96283.41;4974246;28;20197;-81
2022/11/13 04:15:41;;;;;;;5.90;5.30;;;;;;;3.64;98.46;96291.09;4967780;28;20201;-81
2022/11/13 04:18:06;;;;;;;7.70;5.80;;;;;;;3.63;98.04;96294.59;4961120;28;20204;-81
2022/11/13 04:20:32;;;;;;;6.30;5.70;;;;;;;3.62;97.65;96287.81;4959656;28;20739;-81
2022/11/13 04:22:57;;;;;;;8.00;6.37;;;;;;;3.62;97.64;96287.81;4973408;28;20224;-81
2022/11/13 04:25:23;;;;;;;6.03;5.43;;;;;;;3.60;97.78;96287.03;4956942;28;20220;-82
2022/11/13 04:27:50;;;;;;;6.20;4.77;;;;;;;3.58;97.48;96288.03;4974373;28;20199;-81
2022/11/13 04:30:15;;;;;;;8.03;5.30;;;;;;;3.54;97.43;96282.25;4969784;28;20280;-81
2022/11/13 04:32:41;;;;;;;6.43;5.03;;;;;;;3.54;97.78;96282.25;4972195;28;20276;-82
2022/11/13 04:35:06;;;;;;;5.90;5.30;;;;;;;3.50;97.57;96275.63;4981020;28;20203;-82
2022/11/13 04:37:32;;;;;;;5.73;4.97;;;;;;;3.49;97.26;96273.97;4971973;28;20208;-82
2022/11/13 04:39:57;;;;;;;6.63;5.40;;;;;;;3.45;97.70;96276.81;4980204;28;20193;-82
2022/11/13 04:45:06;;;;;;;7.80;5.23;;;;;;;3.42;97.35;96270.09;4976109;28;20278;-81
2022/11/13 04:47:32;;;;;;;7.70;6.33;;;;;;;3.44;97.72;96268.25;4986212;28;20660;-82
2022/11/13 04:49:57;;;;;;;6.93;6.23;;;;;;;3.42;97.49;96265.78;4982282;28;20200;-82
2022/11/13 04:52:22;;;;;;;10.23;5.77;;;;;;;3.45;97.84;96262.25;4980714;28;20209;-82
2022/11/13 04:54:48;;;;;;;7.47;6.67;;;;;;;3.46;97.57;96257.94;4982134;28;20219;-82
2022/11/13 04:57:13;;;;;;;7.20;6.20;;;;;;;3.45;97.87;96267.38;4957094;28;20193;-82
2022/11/13 04:59:38;;;;;;;7.83;6.77;;;;;;;3.44;97.45;96268.25;4974436;28;20696;-81
2022/11/13 05:02:03;;;;;;;7.20;6.50;;;;;;;3.44;97.42;96268.25;4974514;28;20882;-81
2022/11/13 05:04:29;;;;;;;6.53;5.80;;;;;;;3.41;97.60;96255.59;4968044;28;20176;-81
2022/11/13 05:06:54;;;;;;;9.00;7.10;;;;;;;3.43;97.66;96261.47;4972113;28;20199;-82
2022/11/13 05:09:19;;;;;;;7.50;6.77;;;;;;;3.40;97.95;96264.22;4983811;28;20209;-82
2022/11/13 05:11:45;;;;;;;7.77;6.97;;;;;;;3.37;97.24;96264.41;4997941;28;20204;-82
2022/11/13 05:14:11;;;;;;;6.80;6.10;;;;;;;3.29;97.18;96266.59;4994955;28;20177;-82
2022/11/13 05:16:36;;;;;;;7.07;6.40;;;;;;;3.23;97.28;96266.91;4970989;28;20183;-82
2022/11/13 05:19:05;;;;;;;8.80;6.40;;;;;;;3.17;96.62;96268.06;4957733;28;20644;-81
2022/11/13 05:21:34;;;;;;;7.63;6.47;;;;;;;3.12;97.07;96264.94;4984230;28;20550;-82
2022/11/13 05:23:59;;;;;;;7.90;6.20;;;;;;;3.06;96.58;96260.97;4976154;28;20219;-81
2022/11/13 05:26:27;;;;;;;8.30;6.70;;;;;;;3.01;96.96;96251.88;4973639;28;20724;-81
2022/11/13 05:28:56;;;;;;;10.20;6.47;;;;;;;3.00;97.18;96250.22;4971748;28;20217;-81
2022/11/13 05:31:21;;;;;;;7.90;6.97;;;;;;;3.00;97.21;96245.06;4980091;28;20213;-81
2022/11/13 05:33:46;;;;;;;7.77;6.97;;;;;;;2.99;97.36;96241.69;4973190;28;20238;-81
2022/11/13 05:36:14;;;;;;;8.17;6.70;;;;;;;3.02;97.43;96236.41;4969620;28;20221;-81
2022/11/13 05:38:40;;;;;;;9.53;6.70;;;;;;;3.00;97.77;96238.19;4982717;28;20211;-81
2022/11/13 05:41:08;;;;;;;8.20;7.00;;;;;;;3.03;97.69;96225.22;4956748;28;20223;-81
2022/11/13 05:43:34;;;;;;;8.23;6.87;;;;;;;3.12;97.58;96229.84;4943233;28;20656;-81
2022/11/13 05:46:04;;;;;;;7.87;6.83;;;;;;;3.14;97.37;96219.50;4971630;28;20212;-81
2022/11/13 05:48:30;;;;;;;8.97;6.50;;;;;;;3.21;97.49;96225.09;4971270;28;20185;-81
2022/11/13 05:51:14;;;;;;;6.73;5.93;;;;;;;3.18;96.64;96223.56;4983815;28;20226;-80
2022/11/13 05:53:40;;;;;;;8.27;6.70;;;;;;;3.17;97.00;96221.03;4971385;28;20242;-82
2022/11/13 05:56:12;;;;;;;7.50;6.67;;;;;;;3.20;97.11;96213.19;4954299;28;20219;-82
2022/11/13 05:58:38;;;;;;;8.20;7.00;;;;;;;3.24;96.77;96220.63;4962446;28;20197;-82
2022/11/13 06:01:18;;;;;;;10.43;6.77;;;;;;;3.27;96.02;96217.03;4956237;28;20809;-82
2022/11/13 06:03:44;;;;;;;6.57;5.93;;;;;;;3.23;95.99;96215.56;4973573;28;20206;-81
2022/11/13 06:06:12;;;;;;;7.77;6.57;;;;;;;3.22;95.85;96211.38;4944690;28;20723;-82
2022/11/13 06:08:37;;;;;;;7.40;6.63;;;;;;;3.18;96.00;96208.16;4942001;28;20214;-82
2022/11/13 06:11:09;;;;;;;7.27;6.07;;;;;;;3.19;95.91;96203.84;4979256;28;20312;-81
2022/11/13 06:13:34;;;;;;;6.77;6.00;;;;;;;3.20;95.97;96208.06;4971858;28;20525;-82
2022/11/13 06:16:01;;;;;;;8.43;6.07;;;;;;;3.14;95.61;96206.66;4976944;28;20833;-82
2022/11/13 06:18:27;;;;;;;7.07;6.37;;;;;;;3.18;95.57;96203.03;4939694;28;20210;-81
2022/11/13 06:20:52;;;;;;;7.73;6.33;;;;;;;3.25;94.19;96200.91;4969117;28;20205;-81
2022/11/13 06:23:17;;;;;;;8.53;6.73;;;;;;;3.28;93.54;96204.16;4972299;28;20199;-81
2022/11/13 06:25:43;;;;;;;7.80;5.83;;;;;;;3.24;93.82;96196.69;4973921;28;20185;-81
2022/11/13 06:28:08;;;;;;;7.43;6.70;;;;;;;3.27;92.95;96197.38;4978748;28;20195;-82
2022/11/13 06:30:33;;;;;;;7.80;6.90;;;;;;;3.28;92.84;96195.63;4971776;28;20312;-82
2022/11/13 06:32:58;;;;;;;8.47;6.77;;;;;;;3.28;93.13;96191.31;4972880;28;20218;-82
2022/11/13 06:35:24;;;;;;;7.40;6.67;;;;;;;3.27;93.14;96199.06;4972356;28;20214;-82
2022/11/13 06:37:49;;;;;;;7.17;6.47;;;;;;;3.30;92.73;96196.34;4970137;28;20665;-82
2022/11/13 06:40:15;;;;;;;8.93;7.47;;;;;;;3.28;92.72;96193.06;4978210;28;20192;-80
2022/11/13 06:42:40;;;;;;;10.80;7.40;;;;;;;3.24;93.12;96201.81;4983542;28;20209;-81
2022/11/13 06:45:06;;;;;;;8.67;7.07;;;;;;;3.18;92.79;96199.59;4971256;28;20284;-81
2022/11/13 06:47:31;;;;;;;8.13;6.90;;;;;;;3.22;93.48;96195.97;4980242;28;20192;-83
2022/11/13 06:49:56;;;;;;;8.17;7.33;;;;;;;3.17;93.48;96201.34;4975688;28;20198;-81
2022/11/13 06:52:22;;;;;;;9.07;6.87;;;;;;;3.21;93.24;96194.31;4972638;28;20210;-80
2022/11/13 06:54:47;;;;;;;8.00;6.87;;;;;;;3.25;92.61;96196.59;4955485;28;20205;-81
2022/11/13 06:57:12;;;;;;;8.47;6.60;;;;;;;3.30;92.54;96198.91;4961484;28;20192;-81
2022/11/13 06:59:38;;;;;;;8.87;7.30;;;;;;;3.25;92.32;96193.22;4982619;28;20294;-81
2022/11/13 07:02:04;;;;;;;8.37;7.17;;;;;;;3.38;91.71;96189.88;4956177;28;20208;-81
2022/11/13 07:04:29;;;;;;;8.60;6.87;;;;;;;3.43;91.39;96192.16;4983730;28;20184;-81
2022/11/13 07:06:54;;;;;;;8.53;7.10;;;;;;;3.38;91.49;96192.44;4977976;28;20639;-80
2022/11/13 07:09:19;;;;;;;10.37;7.97;;;;;;;3.31;91.59;96183.44;4956357;28;20194;-80
2022/11/13 07:11:45;;;;;;;8.80;6.80;;;;;;;3.34;91.84;96172.16;4965597;28;20208;-81
2022/11/13 07:14:11;;;;;;;7.03;6.07;;;;;;;3.37;91.84;96177.94;4986415;28;20290;-81
2022/11/13 07:16:37;;;;;;;7.77;6.50;;;;;;;3.38;91.45;96173.63;4973257;28;20230;-81
2022/11/13 07:19:02;;;;;;;8.60;6.60;;;;;;;3.40;92.12;96169.22;4985067;28;20187;-81
2022/11/13 07:21:27;;;;;;;8.93;6.83;;;;;;;3.40;91.91;96166.66;4985428;28;20219;-81
2022/11/13 07:23:53;;;;;;;7.73;6.63;;;;;;;3.46;92.11;96156.06;4995275;28;20650;-81
2022/11/13 07:26:18;;;;;;;8.27;7.27;;;;;;;3.52;92.12;96160.81;4982559;28;20183;-81
2022/11/13 07:28:44;;;;;;;10.27;9.17;;;;;;;3.56;91.91;96164.88;4978083;28;20192;-80
2022/11/13 07:31:11;;;;;;;10.47;9.47;;;;;;;3.60;91.89;96153.47;4982811;28;20294;-80
2022/11/13 07:33:36;;;;;;;11.63;9.17;;;;;;;3.66;91.90;96149.75;4994407;28;20291;-81
2022/11/13 07:36:02;;;;;;;8.40;7.57;;;;;;;3.75;91.98;96154.31;4979510;28;20247;-81
2022/11/13 07:38:27;;;;;;;8.47;7.30;;;;;;;3.90;90.64;96150.03;4977447;28;20210;-82
2022/11/13 07:40:53;;;;;;;11.60;7.70;;;;;;;4.06;88.46;96149.91;4987458;28;20211;-82
2022/11/13 07:43:18;;;;;;;7.77;7.00;;;;;;;4.17;88.55;96148.34;4992821;28;20197;-82
2022/11/13 07:45:43;;;;;;;7.30;6.40;;;;;;;4.28;87.68;96154.56;4984414;28;20192;-81
2022/11/13 07:48:09;;;;;;;8.47;6.20;;;;;;;4.37;87.26;96159.97;4984514;28;20552;-78
2022/11/13 07:50:35;;;;;;;6.30;5.53;;;;;;;4.48;86.93;96157.56;4983030;28;20556;-82
2022/11/13 07:53:03;;;;;;;6.57;5.87;;;;;;;4.56;86.46;96159.66;4994236;28;20712;-83
2022/11/13 07:55:29;;;;;;;7.70;5.30;;;;;;;4.60;86.55;96158.56;4989328;28;20268;-84
2022/11/13 07:57:56;;;;;;;8.20;5.40;;;;;;;4.65;86.58;96164.22;4982923;28;20196;-83
2022/11/13 08:00:22;;;;;;;7.57;6.70;;;;;;;4.77;85.13;96147.16;4977876;28;20186;-83
2022/11/13 08:02:47;;;;;;;8.03;6.23;;;;;;;4.84;84.69;96151.84;4994097;28;20241;-82
2022/11/13 08:05:14;;;;;;;8.90;6.57;;;;;;;4.92;85.02;96142.81;4975222;28;20187;-83
2022/11/13 08:07:39;;;;;;;6.97;6.10;;;;;;;4.92;83.91;96145.38;4986967;28;20196;-82
2022/11/13 08:10:05;;;;;;;6.40;5.80;;;;;;;5.03;84.11;96148.06;4993326;28;20521;-82
2022/11/13 08:12:30;;;;;;;6.27;5.63;;;;;;;5.11;81.94;96145.84;4993657;28;20298;-82
2022/11/13 08:14:55;;;;;;;7.10;6.33;;;;;;;5.13;80.32;96136.28;4983358;28;20299;-82
2022/11/13 08:17:21;;;;;;;7.17;5.53;;;;;;;5.26;79.86;96126.81;4982346;28;20189;-82
2022/11/13 08:19:46;;;;;;;6.63;5.93;;;;;;;5.39;79.59;96126.84;4988061;28;20193;-81
2022/11/13 08:22:11;;;;;;;6.07;5.47;;;;;;;5.46;78.74;96125.50;4992037;28;20261;-82
2022/11/13 08:24:36;;;;;;;6.57;5.57;;;;;;;5.58;78.19;96129.03;4974390;28;20566;-84
2022/11/13 08:27:02;;;;;;;7.37;5.77;;;;;;;5.62;78.30;96120.97;4999200;28;20181;-83
2022/11/13 08:29:27;;;;;;;6.53;5.87;;;;;;;5.65;78.29;96131.09;4983321;28;20184;-83
2022/11/13 08:31:52;;;;;;;6.73;5.80;;;;;;;5.80;78.52;96130.97;4983487;28;20215;-83
2022/11/13 08:34:18;;;;;;;7.53;6.00;;;;;;;5.83;79.23;96125.59;4976319;28;20194;-82
2022/11/13 08:36:43;;;;;;;7.47;6.00;;;;;;;5.86;79.59;96118.47;4991559;28;20200;-82
2022/11/13 08:39:08;;;;;;;7.07;5.80;;;;;;;5.96;78.35;96118.72;4985281;28;20215;-82
2022/11/13 08:41:34;;;;;;;7.60;6.10;;;;;;;5.94;78.67;96115.41;4996328;28;20220;-81
2022/11/13 08:43:59;;;;;;;8.53;6.20;;;;;;;5.90;77.78;96114.78;4973912;28;20184;-81
2022/11/13 08:46:25;;;;;;;7.80;7.03;;;;;;;5.95;77.63;96109.31;4978538;28;20176;-77
2022/11/13 08:48:50;;;;;;;7.17;6.47;;;;;;;6.05;77.66;96107.75;4985314;28;20191;-78
2022/11/13 08:51:17;;;;;;;6.77;5.93;;;;;;;6.20;77.38;96105.88;4976422;28;20582;-78
2022/11/13 08:53:42;;;;;;;9.20;5.87;;;;;;;6.31;77.12;96107.69;4990587;28;20199;-79
2022/11/13 08:56:07;;;;;;;7.40;5.80;;;;;;;6.38;76.73;96102.00;4989983;28;20200;-80
2022/11/13 08:58:32;;;;;;;6.77;5.30;;;;;;;6.43;76.62;96093.94;4980626;28;20191;-80
2022/11/13 09:00:59;;;;;;;6.47;5.50;;;;;;;6.55;76.27;96094.84;4974324;28;20231;-82
2022/11/13 09:03:25;;;;;;;8.30;7.40;;;;;;;6.56;76.02;96105.03;4989383;28;20279;-80
2022/11/13 09:05:50;;;;;;;10.97;8.47;;;;;;;6.65;74.83;96100.97;4989332;28;20229;-81
2022/11/13 09:08:15;;;;;;;7.67;5.83;;;;;;;6.55;72.30;96105.16;4973541;28;20255;-80
2022/11/13 09:10:41;;;;;;;8.47;6.90;;;;;;;6.81;72.18;96091.19;4970429;28;20188;-81
2022/11/13 09:13:07;;;;;;;13.20;8.77;;;;;;;6.85;71.12;96089.22;4981923;28;20280;-80
2022/11/13 09:15:33;;;;;;;7.90;5.10;;;;;;;6.94;67.98;96091.94;4979843;28;20644;-81
2022/11/13 09:18:00;;;;;;;5.80;4.33;;;;;;;6.99;68.47;96087.28;4978718;28;20743;-81
2022/11/13 09:20:27;;;;;;;5.00;4.23;;;;;;;7.23;69.27;96086.38;4959624;28;20750;-82
2022/11/13 09:23:03;;;;;;;6.40;4.03;;;;;;;7.41;69.85;96086.78;4970806;28;20257;-81
2022/11/13 09:25:29;;;;;;;5.60;4.20;;;;;;;7.53;69.89;96091.84;5002606;28;20321;-82
2022/11/13 09:27:59;;;;;;;5.67;4.47;;;;;;;7.55;69.82;96084.81;4990110;28;20199;-81
2022/11/13 09:30:25;;;;;;;6.37;3.77;;;;;;;7.64;68.71;96086.69;4989848;28;20403;-81
2022/11/13 09:32:55;;;;;;;4.03;3.63;;;;;;;7.72;67.74;96083.53;4985626;28;20208;-80
2022/11/13 09:35:33;;;;;;;4.33;3.93;;;;;;;7.84;68.25;96077.41;4984433;28;20209;-82
2022/11/13 09:38:06;;;;;;;7.57;4.83;;;;;;;7.88;68.34;96083.19;4990274;28;20202;-82
2022/11/13 09:40:41;;;;;;;5.50;4.70;;;;;;;7.85;68.50;96080.81;4967438;28;20564;-81
2022/11/13 09:43:18;;;;;;;4.67;4.23;;;;;;;7.90;67.29;96082.13;4992296;28;20273;-81
2022/11/13 09:45:43;;;;;;;5.67;4.70;;;;;;;7.94;69.28;96087.88;5005061;28;20226;-81
2022/11/13 09:48:28;;;;;;;7.57;5.63;;;;;;;8.12;68.90;96081.25;4981911;28;20215;-80
2022/11/13 09:50:54;;;;;;;8.77;6.03;;;;;;;7.92;70.89;96082.00;4986069;28;20218;-80
2022/11/13 09:53:20;;;;;;;6.43;5.60;;;;;;;7.96;70.22;96080.84;4975311;28;20187;-80
2022/11/13 09:55:59;;;;;;;6.83;5.10;;;;;;;7.81;70.26;96082.00;4986707;28;20311;-80
2022/11/13 09:58:41;;;;;;;6.63;5.27;;;;;;;7.86;70.57;96079.88;4972689;28;20187;-81
2022/11/13 10:01:20;;;;;;;6.10;5.50;;;;;;;8.07;69.99;96077.41;4987738;28;20219;-80
2022/11/13 10:03:51;;;;;;;5.57;4.93;;;;;;;7.95;68.33;96077.44;4993540;28;20188;-80
2022/11/13 10:07:03;;;;;;;5.07;4.57;;;;;;;8.08;67.33;96077.28;4987871;28;20195;-80
2022/11/13 10:09:48;;;;;;;5.30;4.80;;;;;;;8.26;66.83;96066.44;4972063;28;20197;-80
2022/11/13 10:12:14;;;;;;;5.03;4.30;;;;;;;8.39;67.02;96062.81;4988604;28;20211;-80
2022/11/13 10:14:45;;;;;;;5.90;4.63;;;;;;;8.39;66.00;96069.72;4963529;28;20227;-81
2022/11/13 10:17:18;;;;;;;5.90;4.90;;;;;;;8.47;66.60;96069.94;4990500;28;20176;-81
2022/11/13 10:19:51;;;;;;;4.90;4.40;;;;;;;8.48;65.18;96063.81;4997091;28;20184;-81
2022/11/13 10:22:27;;;;;;;5.80;4.50;;;;;;;8.51;64.98;96061.81;5013704;28;20208;-81
2022/11/13 10:24:58;;;;;;;5.93;4.87;;;;;;;8.61;64.75;96061.09;5007997;28;20217;-80
2022/11/13 10:27:24;;;;;;;6.10;4.30;;;;;;;8.70;65.01;96060.34;4994585;28;20200;-81
2022/11/13 10:29:50;;;;;;;5.77;5.17;;;;;;;8.55;64.34;96061.56;4985231;28;20545;-82
2022/11/13 10:32:28;;;;;;;6.80;5.63;;;;;;;8.74;64.88;96059.97;4975127;28;20222;-81
2022/11/13 10:34:57;;;;;;;7.20;5.87;;;;;;;8.66;64.46;96059.78;4994943;28;20215;-81
2022/11/13 10:37:41;;;;;;;6.77;5.60;;;;;;;8.76;65.41;96055.50;4991088;28;20706;-81
2022/11/13 10:40:07;;;;;;;6.70;6.00;;;;;;;8.69;64.73;96054.34;4983743;28;20181;-80
2022/11/13 10:42:39;;;;;;;6.17;4.80;;;;;;;8.72;64.72;96043.72;4976265;28;20619;-81
2022/11/13 10:45:13;;;;;;;6.70;5.10;;;;;;;8.97;65.98;96036.56;4960195;28;20179;-81
2022/11/13 10:47:45;;;;;;;6.30;5.63;;;;;;;8.82;64.80;96035.22;5001025;28;20198;-80
2022/11/13 10:50:24;;;;;;;7.27;5.13;;;;;;;8.95;66.87;96033.28;4976645;28;20211;-80
2022/11/13 10:52:53;;;;;;;6.10;4.90;;;;;;;8.85;65.70;96022.84;4978107;28;20222;-79
2022/11/13 10:55:38;;;;;;;6.47;4.93;;;;;;;9.10;65.71;96019.09;4996916;28;20628;-79
2022/11/13 10:58:11;;;;;;;8.30;5.90;;;;;;;9.08;67.08;96016.59;4977864;28;20184;-80
2022/11/13 11:00:38;;;;;;;6.10;5.33;;;;;;;9.19;66.69;96013.13;4974919;28;20192;-80
2022/11/13 11:03:07;;;;;;;5.37;4.73;;;;;;;9.33;67.30;96017.16;5007501;28;20196;-80
2022/11/13 11:05:34;;;;;;;7.10;4.90;;;;;;;9.39;67.88;96010.63;4967883;28;20184;-80
2022/11/13 11:07:59;;;;;;;5.83;5.30;;;;;;;9.24;66.16;96018.75;4979217;28;20203;-81
2022/11/13 11:10:30;;;;;;;6.10;5.50;;;;;;;9.41;67.28;96008.72;4978402;28;20216;-80
2022/11/13 11:13:00;;;;;;;7.40;5.70;;;;;;;9.54;67.24;96001.53;4983825;28;20183;-81
2022/11/13 11:15:31;;;;;;;6.57;5.70;;;;;;;9.50;67.19;95995.00;4982104;28;20267;-80
2022/11/13 11:18:00;;;;;;;7.57;5.70;;;;;;;9.61;66.03;95993.13;4978049;28;20194;-81
2022/11/13 11:20:42;;;;;;;6.57;5.77;;;;;;;9.68;66.63;95983.06;4982690;28;20177;-81
2022/11/13 11:23:40;;;;;;;6.20;5.43;;;;;;;9.67;65.80;95991.78;4995621;28;20179;-81
2022/11/13 11:26:14;;;;;;;6.50;5.50;;;;;;;9.65;66.00;95976.38;5009908;28;20224;-80
2022/11/13 11:28:47;;;;;;;7.47;5.57;;;;;;;9.88;66.30;95970.97;4982666;28;20765;-81
2022/11/13 11:31:30;;;;;;;5.80;5.13;;;;;;;9.89;65.15;95965.66;4987266;28;20219;-80
2022/11/13 11:34:14;;;;;;;6.63;5.70;;;;;;;9.84;65.86;95961.81;4992597;28;20180;-80
2022/11/13 11:36:45;;;;;;;5.70;5.10;;;;;;;9.89;65.30;95963.06;4991134;28;20622;-80
2022/11/13 11:39:25;;;;;;;6.17;5.43;;;;;;;9.98;63.65;95960.59;4990543;28;20192;-80